createdAt,value
2018-11-11T00:07:59.617Z,10.00
2018-11-11T00:10:44.277Z,9.25
2018-11-11T00:13:50.512Z,6.00
2018-11-11T00:16:40.042Z,9.50
2018-11-11T00:19:26.055Z,6.50
2018-11-11T00:22:29.631Z,9.00
2018-11-11T00:25:00.930Z,9.25
2018-11-11T00:27:36.203Z,10.00
2018-11-11T00:30:22.877Z,8.75
2018-11-11T00:32:54.953Z,7.75
2018-11-11T00:35:27.545Z,11.00
2018-11-11T00:37:57.902Z,8.50
2018-11-11T00:40:29.119Z,5.75
2018-11-11T00:43:04.757Z,7.75
2018-11-11T00:45:37.996Z,6.75
2018-11-11T00:48:08.513Z,7.50
2018-11-11T00:50:38.255Z,7.00
2018-11-11T00:53:10.513Z,7.00
2018-11-11T00:55:46.502Z,6.25
2018-11-11T01:01:04.821Z,6.00
2018-11-11T01:03:41.843Z,8.25
2018-11-11T01:06:20.740Z,7.00
2018-11-11T01:08:57.586Z,6.00
2018-11-11T01:11:29.191Z,6.00
2018-11-11T01:13:59.759Z,5.75
2018-11-11T01:16:31.519Z,7.50
2018-11-11T01:19:04.822Z,5.75
2018-11-11T01:21:35.097Z,6.00
2018-11-11T01:24:05.796Z,6.00
2018-11-11T01:26:42.832Z,6.00
2018-11-11T01:29:12.868Z,7.50
2018-11-11T01:31:42.719Z,6.00
2018-11-11T01:34:13.472Z,6.00
2018-11-11T01:36:43.602Z,6.00
2018-11-11T01:39:13.160Z,6.00
2018-11-11T01:41:44.628Z,6.00
2018-11-11T01:44:14.972Z,6.50
2018-11-11T01:46:44.798Z,5.75
2018-11-11T01:49:15.590Z,6.00
2018-11-11T01:51:45.875Z,6.25
2018-11-11T01:54:15.976Z,6.00
2018-11-11T01:56:45.947Z,7.25
2018-11-11T01:59:16.528Z,8.50
2018-11-11T02:01:47.715Z,6.50
2018-11-11T02:04:26.133Z,6.75
2018-11-11T02:06:56.150Z,5.00
2018-11-11T02:09:27.583Z,5.00
2018-11-11T02:11:57.238Z,6.00
2018-11-11T02:14:26.701Z,6.75
2018-11-11T02:16:57.554Z,5.00
2018-11-11T02:19:27.616Z,5.00
2018-11-11T02:21:57.548Z,5.75
2018-11-11T02:24:28.410Z,3.25
2018-11-11T02:27:00.081Z,5.25
2018-11-11T02:29:29.347Z,6.00
2018-11-11T02:32:00.140Z,3.75
2018-11-11T02:34:29.992Z,6.00
2018-11-11T02:37:00.879Z,4.50
2018-11-11T02:39:33.967Z,5.25
2018-11-11T02:42:04.881Z,3.25
2018-11-11T02:44:35.572Z,5.50
2018-11-11T02:47:07.847Z,3.25
2018-11-11T02:49:42.415Z,6.25
2018-11-11T02:52:11.948Z,5.00
2018-11-11T02:54:41.781Z,4.00
2018-11-11T02:57:11.727Z,6.50
2018-11-11T02:59:42.018Z,5.00
2018-11-11T03:02:13.310Z,5.00
2018-11-11T03:04:47.407Z,6.00
2018-11-11T03:07:18.093Z,5.25
2018-11-11T03:12:46.304Z,3.75
2018-11-11T03:15:18.038Z,5.50
2018-11-11T03:20:23.738Z,7.75
2018-11-11T03:22:53.374Z,4.50
2018-11-11T03:25:41.233Z,4.50
2018-11-11T03:28:10.495Z,5.50
2018-11-11T03:30:40.672Z,5.00
2018-11-11T03:33:15.075Z,3.75
2018-11-11T03:35:45.221Z,6.75
2018-11-11T03:38:16.213Z,3.75
2018-11-11T03:40:46.280Z,3.25
2018-11-11T03:43:18.209Z,3.00
2018-11-11T03:45:48.309Z,5.75
2018-11-11T03:48:19.803Z,5.50
2018-11-11T03:50:49.398Z,5.25
2018-11-11T03:53:20.541Z,6.00
2018-11-11T03:55:50.593Z,5.00
2018-11-11T03:58:31.655Z,4.75
2018-11-11T04:01:02.300Z,4.00
2018-11-11T04:03:31.562Z,4.75
2018-11-11T04:06:00.784Z,6.00
2018-11-11T04:08:31.005Z,3.00
2018-11-11T04:11:00.403Z,7.25
2018-11-11T04:13:30.001Z,5.25
2018-11-11T04:16:00.512Z,5.00
2018-11-11T04:18:29.942Z,5.00
2018-11-11T04:21:00.402Z,3.00
2018-11-11T04:23:29.760Z,3.50
2018-11-11T04:25:59.137Z,5.00
2018-11-11T04:28:29.229Z,5.00
2018-11-11T04:30:59.400Z,4.50
2018-11-11T04:33:28.934Z,3.75
2018-11-11T04:35:58.440Z,3.00
2018-11-11T04:38:27.984Z,3.00
2018-11-11T04:40:58.252Z,3.00
2018-11-11T04:43:28.901Z,3.75
2018-11-11T04:45:58.546Z,3.75
2018-11-11T04:48:28.618Z,4.00
2018-11-11T04:50:58.142Z,2.25
2018-11-11T04:53:27.750Z,4.50
2018-11-11T04:55:57.778Z,5.25
2018-11-11T04:58:29.431Z,2.75
2018-11-11T05:00:59.316Z,3.00
2018-11-11T05:03:29.657Z,3.00
2018-11-11T05:05:59.258Z,3.00
2018-11-11T05:08:29.441Z,4.25
2018-11-11T05:11:00.079Z,5.00
2018-11-11T05:13:29.994Z,3.50
2018-11-11T05:15:59.627Z,5.00
2018-11-11T05:18:32.205Z,3.00
2018-11-11T05:21:02.035Z,3.00
2018-11-11T05:23:38.330Z,3.50
2018-11-11T05:26:08.417Z,5.25
2018-11-11T05:28:43.584Z,3.75
2018-11-11T05:31:27.397Z,5.00
2018-11-11T05:33:57.871Z,3.75
2018-11-11T05:36:28.651Z,3.00
2018-11-11T05:38:59.555Z,4.00
2018-11-11T05:41:31.571Z,4.00
2018-11-11T05:44:01.768Z,3.00
2018-11-11T05:46:32.772Z,4.25
2018-11-11T05:49:05.927Z,4.50
2018-11-11T05:51:35.797Z,6.00
2018-11-11T05:54:06.401Z,3.50
2018-11-11T05:56:37.858Z,5.00
2018-11-11T05:59:12.645Z,3.00
2018-11-11T06:01:43.239Z,5.00
2018-11-11T06:07:05.930Z,5.75
2018-11-11T06:09:42.396Z,4.50
2018-11-11T06:12:12.451Z,2.00
2018-11-11T06:14:42.508Z,3.00
2018-11-11T06:17:12.397Z,3.50
2018-11-11T06:19:43.450Z,3.75
2018-11-11T06:22:13.833Z,3.75
2018-11-11T06:24:44.094Z,2.25
2018-11-11T06:27:13.603Z,5.00
2018-11-11T06:29:52.226Z,3.00
2018-11-11T06:32:21.621Z,3.00
2018-11-11T06:34:52.614Z,2.00
2018-11-11T06:37:22.683Z,2.75
2018-11-11T06:39:53.561Z,3.75
2018-11-11T06:42:24.318Z,5.00
2018-11-11T06:45:00.010Z,4.25
2018-11-11T06:47:29.724Z,4.50
2018-11-11T06:49:59.786Z,4.75
2018-11-11T06:52:28.972Z,3.00
2018-11-11T06:54:59.989Z,5.75
2018-11-11T06:57:30.097Z,4.25
2018-11-11T07:00:01.683Z,3.50
2018-11-11T07:02:38.181Z,5.00
2018-11-11T07:05:09.341Z,3.75
2018-11-11T07:07:49.474Z,4.75
2018-11-11T07:10:22.670Z,4.00
2018-11-11T07:12:55.348Z,5.00
2018-11-11T07:15:30.894Z,3.25
2018-11-11T07:18:02.165Z,5.00
2018-11-11T07:20:33.468Z,3.00
2018-11-11T07:23:03.208Z,4.50
2018-11-11T07:25:38.013Z,2.25
2018-11-11T07:28:10.290Z,5.00
2018-11-11T07:30:42.667Z,3.25
2018-11-11T07:33:14.911Z,3.00
2018-11-11T07:35:45.294Z,4.00
2018-11-11T07:38:32.506Z,3.00
2018-11-11T07:41:11.366Z,4.25
2018-11-11T07:43:46.152Z,2.25
2018-11-11T07:46:19.723Z,2.00
2018-11-11T07:48:49.814Z,3.00
2018-11-11T07:51:28.604Z,2.00
2018-11-11T07:53:58.092Z,3.25
2018-11-11T07:56:28.972Z,2.00
2018-11-11T07:58:59.922Z,2.50
2018-11-11T08:01:30.304Z,2.50
2018-11-11T08:04:01.150Z,2.50
2018-11-11T08:06:30.804Z,3.00
2018-11-11T08:09:03.998Z,2.00
2018-11-11T08:11:47.100Z,2.75
2018-11-11T08:14:29.500Z,1.75
2018-11-11T08:17:03.209Z,2.25
2018-11-11T08:19:34.807Z,2.00
2018-11-11T08:25:23.027Z,2.00
2018-11-11T08:28:00.491Z,2.00
2018-11-11T08:30:52.140Z,2.00
2018-11-11T08:33:26.248Z,1.50
2018-11-11T08:35:57.511Z,2.00
2018-11-11T08:38:28.520Z,1.00
2018-11-11T08:40:59.930Z,2.00
2018-11-11T08:43:40.202Z,2.00
2018-11-11T08:46:14.400Z,1.25
2018-11-11T08:48:51.728Z,2.00
2018-11-11T08:51:30.118Z,1.25
2018-11-11T08:54:07.259Z,1.00
2018-11-11T08:56:39.767Z,1.75
2018-11-11T09:02:08.530Z,2.00
2018-11-11T09:04:38.227Z,2.00
2018-11-11T09:07:27.702Z,2.00
2018-11-11T09:09:58.564Z,1.50
2018-11-11T09:12:33.848Z,1.00
2018-11-11T09:15:18.775Z,1.00
2018-11-11T09:17:55.394Z,2.00
2018-11-11T09:20:27.668Z,1.00
2018-11-11T09:23:01.560Z,1.75
2018-11-11T09:28:44.351Z,2.00
2018-11-11T09:31:20.603Z,2.25
2018-11-11T09:33:53.003Z,1.25
2018-11-11T09:36:27.780Z,2.00
2018-11-11T09:39:01.585Z,1.00
2018-11-11T09:41:33.460Z,1.00
2018-11-11T09:44:04.213Z,1.00
2018-11-11T09:46:41.429Z,1.00
2018-11-11T09:49:18.178Z,1.00
2018-11-11T09:51:51.389Z,2.00
2018-11-11T09:54:21.534Z,1.75
2018-11-11T09:56:55.221Z,1.50
2018-11-11T09:59:29.450Z,2.75
2018-11-11T10:02:10.134Z,1.00
2018-11-11T10:04:52.871Z,2.00
2018-11-11T10:07:58.837Z,2.00
2018-11-11T10:10:41.714Z,1.00
2018-11-11T10:13:37.760Z,1.50
2018-11-11T10:18:25.668Z,2.00
2018-11-11T10:21:12.696Z,1.00
2018-11-11T10:24:05.055Z,1.75
2018-11-11T10:26:59.398Z,1.50
2018-11-11T10:29:47.330Z,1.00
2018-11-11T10:32:39.788Z,1.00
2018-11-11T10:35:31.273Z,2.25
2018-11-11T10:38:23.482Z,1.50
2018-11-11T10:45:48.657Z,1.00
2018-11-11T10:48:48.680Z,1.00
2018-11-11T10:51:43.658Z,2.00
2018-11-11T11:00:47.915Z,1.00
2018-11-11T11:04:13.518Z,1.00
2018-11-11T11:06:56.053Z,2.00
2018-11-11T11:09:43.693Z,1.50
2018-11-11T11:12:23.740Z,1.00
2018-11-11T11:15:27.549Z,1.00
2018-11-11T11:18:03.466Z,3.00
2018-11-11T11:20:36.557Z,2.25
2018-11-11T11:23:09.122Z,2.00
2018-11-11T11:25:46.765Z,1.00
2018-11-11T11:28:52.119Z,2.00
2018-11-11T11:31:29.450Z,3.00
2018-11-11T11:34:02.511Z,2.75
2018-11-11T11:36:34.473Z,2.25
2018-11-11T11:39:05.557Z,1.25
2018-11-11T11:41:38.732Z,1.75
2018-11-11T11:44:12.433Z,3.50
2018-11-11T11:46:50.485Z,3.00
2018-11-11T11:49:27.802Z,2.50
2018-11-11T11:52:08.687Z,1.75
2018-11-11T11:54:51.576Z,2.50
2018-11-11T12:00:16.347Z,2.25
2018-11-11T12:02:47.100Z,2.00
2018-11-11T12:05:23.365Z,2.25
2018-11-11T12:07:56.779Z,2.50
2018-11-11T12:10:32.018Z,1.75
2018-11-11T12:13:05.775Z,2.00
2018-11-11T12:15:49.869Z,3.00
2018-11-11T12:18:20.607Z,2.00
2018-11-11T12:20:50.457Z,3.00
2018-11-11T12:23:29.614Z,2.00
2018-11-11T12:26:00.786Z,4.75
2018-11-11T12:28:38.886Z,3.00
2018-11-11T12:31:13.524Z,2.00
2018-11-11T12:33:51.848Z,2.00
2018-11-11T12:36:36.177Z,3.00
2018-11-11T12:39:21.752Z,3.00
2018-11-11T12:44:41.957Z,3.00
2018-11-11T12:47:18.921Z,2.25
2018-11-11T12:49:50.952Z,3.00
2018-11-11T12:52:24.054Z,2.25
2018-11-11T12:54:53.937Z,2.50
2018-11-11T12:57:26.596Z,2.00
2018-11-11T13:02:48.582Z,2.00
2018-11-11T13:05:20.102Z,3.00
2018-11-11T13:07:54.587Z,4.75
2018-11-11T13:10:26.986Z,3.50
2018-11-11T13:13:05.338Z,6.25
2018-11-11T13:18:21.522Z,4.75
2018-11-11T13:21:03.426Z,2.75
2018-11-11T13:23:53.823Z,6.25
2018-11-11T13:26:34.360Z,3.00
2018-11-11T13:29:20.339Z,10.00
2018-11-11T13:32:01.164Z,3.00
2018-11-11T13:34:37.336Z,4.00
2018-11-11T13:37:11.470Z,4.00
2018-11-11T13:39:47.456Z,5.00
2018-11-11T13:48:00.337Z,3.50
2018-11-11T13:50:35.593Z,7.00
2018-11-11T13:53:09.918Z,5.00
2018-11-11T13:55:45.795Z,3.00
2018-11-11T13:58:25.907Z,6.00
2018-11-11T14:03:51.091Z,6.25
2018-11-11T14:06:23.298Z,5.00
2018-11-11T14:09:10.951Z,3.75
2018-11-11T14:11:59.118Z,5.00
2018-11-11T14:14:45.909Z,3.00
2018-11-11T14:17:24.592Z,5.00
2018-11-11T14:19:57.625Z,2.50
2018-11-11T14:22:28.351Z,9.50
2018-11-11T14:24:59.890Z,3.00
2018-11-11T14:27:31.741Z,5.00
2018-11-11T14:32:51.690Z,2.75
2018-11-11T14:35:21.928Z,11.25
2018-11-11T14:37:51.497Z,7.00
2018-11-11T14:40:22.476Z,6.00
2018-11-11T14:42:53.372Z,3.00
2018-11-11T14:45:24.365Z,3.25
2018-11-11T14:47:58.846Z,2.50
2018-11-11T14:50:35.678Z,4.00
2018-11-11T14:53:11.237Z,4.75
2018-11-11T14:55:43.040Z,2.00
2018-11-11T14:58:13.776Z,2.00
2018-11-11T15:00:48.323Z,2.75
2018-11-11T15:03:34.619Z,3.00
2018-11-11T15:06:07.333Z,5.00
2018-11-11T15:08:54.651Z,5.00
2018-11-11T15:14:11.100Z,5.00
2018-11-11T15:16:50.813Z,4.50
2018-11-11T15:31:57.324Z,6.00
2018-11-11T15:43:26.387Z,5.00
2018-11-11T15:45:56.832Z,9.25
2018-11-11T15:48:34.505Z,10.00
2018-11-11T15:51:06.749Z,6.00
2018-11-11T15:53:38.483Z,8.75
2018-11-11T15:56:21.334Z,9.00
2018-11-11T15:58:57.480Z,9.00
2018-11-11T16:01:42.617Z,6.00
2018-11-11T16:04:15.617Z,6.00
2018-11-11T16:07:06.878Z,6.00
2018-11-11T16:09:40.422Z,8.25
2018-11-11T16:12:20.195Z,7.75
2018-11-11T16:14:55.194Z,6.00
2018-11-11T16:17:29.523Z,6.00
2018-11-11T16:20:19.790Z,6.00
2018-11-11T16:23:12.643Z,5.50
2018-11-11T16:25:45.832Z,4.75
2018-11-11T16:28:19.409Z,6.25
2018-11-11T16:30:57.392Z,9.50
2018-11-11T16:33:37.165Z,8.00
2018-11-11T16:36:11.818Z,7.50
2018-11-11T16:38:57.217Z,6.00
2018-11-11T16:41:42.841Z,7.00
2018-11-11T16:47:03.629Z,5.00
2018-11-11T16:49:36.136Z,6.25
2018-11-11T16:55:20.112Z,7.75
2018-11-11T16:58:01.631Z,6.50
2018-11-11T17:00:51.800Z,5.75
2018-11-11T17:03:27.874Z,4.00
2018-11-11T17:06:17.740Z,5.00
2018-11-11T17:08:58.481Z,7.00
2018-11-11T17:11:39.579Z,5.25
2018-11-11T17:14:13.176Z,5.50
2018-11-11T17:16:45.381Z,5.50
2018-11-11T17:19:16.424Z,5.75
2018-11-11T17:22:03.636Z,5.00
2018-11-11T17:24:34.540Z,9.00
2018-11-11T17:27:07.885Z,8.50
2018-11-11T17:29:42.094Z,6.00
2018-11-11T17:32:13.433Z,7.00
2018-11-11T17:35:06.833Z,6.00
2018-11-11T17:37:46.681Z,7.25
2018-11-11T17:40:29.088Z,8.75
2018-11-11T17:43:03.474Z,6.25
2018-11-11T17:48:10.461Z,6.25
2018-11-11T17:50:44.558Z,14.50
2018-11-11T17:56:49.099Z,7.00
2018-11-11T18:02:57.626Z,13.50
2018-11-11T18:05:41.861Z,9.00
2018-11-11T18:08:12.537Z,8.50
2018-11-11T18:10:53.360Z,7.00
2018-11-11T18:13:24.858Z,6.00
2018-11-11T18:22:09.203Z,7.50
2018-11-11T18:24:41.752Z,5.75
2018-11-11T18:27:13.519Z,6.00
2018-11-11T18:30:08.758Z,7.00
2018-11-11T18:32:45.593Z,8.25
2018-11-11T18:35:37.224Z,5.00
2018-11-11T18:38:13.659Z,5.25
2018-11-11T18:40:49.256Z,5.00
2018-11-11T18:43:34.263Z,3.75
2018-11-11T18:49:11.727Z,7.00
2018-11-11T18:52:19.847Z,6.75
2018-11-11T18:54:54.064Z,6.00
2018-11-11T18:57:26.388Z,5.00
2018-11-11T19:00:09.248Z,4.00
2018-11-11T19:02:47.905Z,6.75
2018-11-11T19:05:25.832Z,5.00
2018-11-11T19:10:34.494Z,5.50
2018-11-11T19:13:10.623Z,5.75
2018-11-11T19:15:59.934Z,5.50
2018-11-11T19:18:43.357Z,5.75
2018-11-11T19:21:18.548Z,6.00
2018-11-11T19:23:50.061Z,7.00
2018-11-11T19:26:37.574Z,6.00
2018-11-11T19:29:32.479Z,5.00
2018-11-11T19:32:24.965Z,6.00
2018-11-11T19:35:01.953Z,6.00
2018-11-11T19:40:55.102Z,6.50
2018-11-11T19:43:38.230Z,5.00
2018-11-11T19:46:24.602Z,6.00
2018-11-11T19:52:15.969Z,5.00
2018-11-11T19:54:50.636Z,6.00
2018-11-11T19:57:35.764Z,6.50
2018-11-11T20:00:25.721Z,9.50
2018-11-11T20:03:01.806Z,9.00
2018-11-11T20:05:50.714Z,7.00
2018-11-11T20:08:26.421Z,7.00
2018-11-11T20:11:10.657Z,7.75
2018-11-11T20:13:46.049Z,8.75
2018-11-11T20:16:21.380Z,9.75
2018-11-11T20:18:54.496Z,6.75
2018-11-11T20:21:28.421Z,5.00
2018-11-11T20:24:02.761Z,6.25
2018-11-11T20:26:33.658Z,12.75
2018-11-11T20:29:11.285Z,7.00
2018-11-11T20:34:48.455Z,9.00
2018-11-11T20:37:27.029Z,6.00
2018-11-11T20:40:06.452Z,6.00
2018-11-11T20:42:45.450Z,6.00
2018-11-11T20:45:36.545Z,5.00
2018-11-11T20:48:22.542Z,7.25
2018-11-11T20:51:04.367Z,7.00
2018-11-11T20:53:41.014Z,6.00
2018-11-11T20:56:11.557Z,5.75
2018-11-11T20:58:42.384Z,6.50
2018-11-11T21:01:20.481Z,7.00
2018-11-11T21:03:52.373Z,6.00
2018-11-11T21:06:27.656Z,4.75
2018-11-11T21:09:08.870Z,3.25
2018-11-11T21:11:51.750Z,4.50
2018-11-11T21:14:34.385Z,6.00
2018-11-11T21:17:14.507Z,5.00
2018-11-11T21:19:47.866Z,3.75
2018-11-11T21:22:35.622Z,5.00
2018-11-11T21:27:48.963Z,3.25
2018-11-11T21:30:27.698Z,5.00
2018-11-11T21:33:05.085Z,5.00
2018-11-11T21:35:36.841Z,3.75
2018-11-11T21:38:15.160Z,3.75
2018-11-11T21:40:45.743Z,3.50
2018-11-11T21:43:16.412Z,3.00
2018-11-11T21:45:46.856Z,3.00
2018-11-11T21:48:16.821Z,2.75
2018-11-11T21:50:54.980Z,3.00
2018-11-11T21:53:37.767Z,3.25
2018-11-11T21:56:17.692Z,3.75
2018-11-11T22:01:33.747Z,2.50
2018-11-11T22:04:09.442Z,2.00
2018-11-11T22:06:43.525Z,2.00
2018-11-11T22:09:20.785Z,3.75
2018-11-11T22:11:55.547Z,3.25
2018-11-11T22:14:29.025Z,4.25
2018-11-11T22:17:04.901Z,4.25
2018-11-11T22:19:43.289Z,3.50
2018-11-11T22:22:16.990Z,6.00
2018-11-11T22:24:47.109Z,6.00
2018-11-11T22:27:18.791Z,6.00
2018-11-11T22:32:28.292Z,6.00
2018-11-11T22:34:58.440Z,5.00
2018-11-11T22:37:28.977Z,6.50
2018-11-11T22:40:08.764Z,5.00
2018-11-11T22:42:41.878Z,6.00
2018-11-11T22:45:15.075Z,7.00
2018-11-11T22:47:49.703Z,6.25
2018-11-11T22:50:20.440Z,7.00
2018-11-11T22:52:49.757Z,6.50
2018-11-11T22:55:24.265Z,6.00
2018-11-11T22:57:59.625Z,7.75
2018-11-11T23:00:38.154Z,9.25
2018-11-11T23:03:10.145Z,7.75
2018-11-11T23:05:45.357Z,6.25
2018-11-11T23:08:28.473Z,6.00
2018-11-11T23:11:01.382Z,9.25
2018-11-11T23:13:46.495Z,6.50
2018-11-11T23:16:21.523Z,5.25
2018-11-11T23:18:55.546Z,6.75
2018-11-11T23:24:46.008Z,8.00
2018-11-11T23:27:21.598Z,6.50
2018-11-11T23:29:52.584Z,7.00
2018-11-11T23:32:25.153Z,6.00
2018-11-11T23:34:58.194Z,7.75
2018-11-11T23:37:28.471Z,7.75
2018-11-11T23:42:50.452Z,9.00
2018-11-11T23:45:29.384Z,6.00
2018-11-11T23:48:00.878Z,6.00
2018-11-11T23:50:33.001Z,5.00
2018-11-11T23:53:04.450Z,6.00
2018-11-11T23:55:35.478Z,6.00
2018-11-11T23:58:05.829Z,6.00
